sensor_id;sensor_type;location;lat;lon;timestamp;temperature;humidity
21176;DHT22;10746;50.178;8.186;2022-09-09T00:00:16;14.30;99.90
21176;DHT22;10746;50.178;8.186;2022-09-09T00:02:49;14.30;99.90
21176;DHT22;10746;50.178;8.186;2022-09-09T00:05:26;14.30;99.90
21176;DHT22;10746;50.178;8.186;2022-09-09T00:07:59;14.20;99.90
21176;DHT22;10746;50.178;8.186;2022-09-09T00:10:32;14.10;99.90
21176;DHT22;10746;50.178;8.186;2022-09-09T00:13:05;14.10;99.90
21176;DHT22;10746;50.178;8.186;2022-09-09T00:15:38;14.00;99.90
21176;DHT22;10746;50.178;8.186;2022-09-09T00:18:14;14.00;99.90
21176;DHT22;10746;50.178;8.186;2022-09-09T00:20:45;14.10;99.90
21176;DHT22;10746;50.178;8.186;2022-09-09T00:23:22;13.90;99.90
21176;DHT22;10746;50.178;8.186;2022-09-09T00:25:57;13.90;99.90
21176;DHT22;10746;50.178;8.186;2022-09-09T00:32:12;13.80;99.90
21176;DHT22;10746;50.178;8.186;2022-09-09T00:34:48;13.80;99.90
21176;DHT22;10746;50.178;8.186;2022-09-09T00:37:16;13.90;99.90
21176;DHT22;10746;50.178;8.186;2022-09-09T00:39:45;13.90;99.90
21176;DHT22;10746;50.178;8.186;2022-09-09T00:42:15;13.90;99.90
21176;DHT22;10746;50.178;8.186;2022-09-09T00:44:58;13.90;99.90
21176;DHT22;10746;50.178;8.186;2022-09-09T00:47:48;13.90;99.90
21176;DHT22;10746;50.178;8.186;2022-09-09T00:50:37;13.90;99.90
21176;DHT22;10746;50.178;8.186;2022-09-09T00:53:22;13.90;99.90
21176;DHT22;10746;50.178;8.186;2022-09-09T00:55:59;13.80;99.90
21176;DHT22;10746;50.178;8.186;2022-09-09T00:58:30;13.70;99.90
21176;DHT22;10746;50.178;8.186;2022-09-09T01:01:02;13.70;99.90
21176;DHT22;10746;50.178;8.186;2022-09-09T01:03:35;13.60;99.90
21176;DHT22;10746;50.178;8.186;2022-09-09T01:06:13;13.60;99.90
21176;DHT22;10746;50.178;8.186;2022-09-09T01:09:10;13.60;99.90
21176;DHT22;10746;50.178;8.186;2022-09-09T01:11:52;13.60;99.90
21176;DHT22;10746;50.178;8.186;2022-09-09T01:14:32;13.50;99.90
21176;DHT22;10746;50.178;8.186;2022-09-09T01:17:04;13.40;99.90
21176;DHT22;10746;50.178;8.186;2022-09-09T01:19:45;13.50;99.90
21176;DHT22;10746;50.178;8.186;2022-09-09T01:22:21;13.50;99.90
21176;DHT22;10746;50.178;8.186;2022-09-09T01:25:06;13.30;99.90
21176;DHT22;10746;50.178;8.186;2022-09-09T01:27:40;13.30;99.90
21176;DHT22;10746;50.178;8.186;2022-09-09T01:30:10;13.30;99.90
21176;DHT22;10746;50.178;8.186;2022-09-09T01:32:40;13.30;99.90
21176;DHT22;10746;50.178;8.186;2022-09-09T01:35:12;13.30;99.90
21176;DHT22;10746;50.178;8.186;2022-09-09T01:37:41;13.20;99.90
21176;DHT22;10746;50.178;8.186;2022-09-09T01:40:08;13.20;99.90
21176;DHT22;10746;50.178;8.186;2022-09-09T01:42:35;13.20;99.90
21176;DHT22;10746;50.178;8.186;2022-09-09T01:45:04;13.10;99.90
21176;DHT22;10746;50.178;8.186;2022-09-09T01:47:31;13.30;99.90
21176;DHT22;10746;50.178;8.186;2022-09-09T01:49:58;13.30;99.90
21176;DHT22;10746;50.178;8.186;2022-09-09T01:52:25;13.30;99.90
21176;DHT22;10746;50.178;8.186;2022-09-09T01:54:52;13.20;99.90
21176;DHT22;10746;50.178;8.186;2022-09-09T01:57:23;13.20;99.90
21176;DHT22;10746;50.178;8.186;2022-09-09T02:00:01;13.10;99.90
21176;DHT22;10746;50.178;8.186;2022-09-09T02:02:34;13.10;99.90
21176;DHT22;10746;50.178;8.186;2022-09-09T02:05:11;13.20;99.90
21176;DHT22;10746;50.178;8.186;2022-09-09T02:07:43;13.20;99.90
21176;DHT22;10746;50.178;8.186;2022-09-09T02:10:17;13.20;99.90
21176;DHT22;10746;50.178;8.186;2022-09-09T02:12:48;13.30;99.90
21176;DHT22;10746;50.178;8.186;2022-09-09T02:15:20;13.20;99.90
21176;DHT22;10746;50.178;8.186;2022-09-09T02:17:50;13.30;99.90
21176;DHT22;10746;50.178;8.186;2022-09-09T02:20:19;13.30;99.90
21176;DHT22;10746;50.178;8.186;2022-09-09T02:22:49;13.40;99.90
21176;DHT22;10746;50.178;8.186;2022-09-09T02:25:20;13.50;99.90
21176;DHT22;10746;50.178;8.186;2022-09-09T02:27:50;13.60;99.90
21176;DHT22;10746;50.178;8.186;2022-09-09T02:30:17;13.70;99.90
21176;DHT22;10746;50.178;8.186;2022-09-09T02:32:46;13.70;99.90
21176;DHT22;10746;50.178;8.186;2022-09-09T02:35:18;13.80;99.90
21176;DHT22;10746;50.178;8.186;2022-09-09T02:37:46;13.90;99.90
21176;DHT22;10746;50.178;8.186;2022-09-09T02:40:14;13.90;99.90
21176;DHT22;10746;50.178;8.186;2022-09-09T02:42:42;14.00;99.90
21176;DHT22;10746;50.178;8.186;2022-09-09T02:45:11;13.80;99.90
21176;DHT22;10746;50.178;8.186;2022-09-09T02:47:42;13.70;99.90
21176;DHT22;10746;50.178;8.186;2022-09-09T02:50:17;13.50;99.90
21176;DHT22;10746;50.178;8.186;2022-09-09T02:52:59;13.40;99.90
21176;DHT22;10746;50.178;8.186;2022-09-09T02:55:35;13.30;99.90
21176;DHT22;10746;50.178;8.186;2022-09-09T02:58:05;13.30;99.90
21176;DHT22;10746;50.178;8.186;2022-09-09T03:00:33;13.30;99.90
21176;DHT22;10746;50.178;8.186;2022-09-09T03:03:03;13.20;99.90
21176;DHT22;10746;50.178;8.186;2022-09-09T03:05:31;13.20;99.90
21176;DHT22;10746;50.178;8.186;2022-09-09T03:07:58;13.20;99.90
21176;DHT22;10746;50.178;8.186;2022-09-09T03:10:25;13.20;99.90
21176;DHT22;10746;50.178;8.186;2022-09-09T03:12:51;13.20;99.90
21176;DHT22;10746;50.178;8.186;2022-09-09T03:15:18;13.10;99.90
21176;DHT22;10746;50.178;8.186;2022-09-09T03:17:45;13.00;99.90
21176;DHT22;10746;50.178;8.186;2022-09-09T03:20:12;13.00;99.90
21176;DHT22;10746;50.178;8.186;2022-09-09T03:22:40;13.00;99.90
21176;DHT22;10746;50.178;8.186;2022-09-09T03:25:08;13.00;99.90
21176;DHT22;10746;50.178;8.186;2022-09-09T03:27:35;13.10;99.90
21176;DHT22;10746;50.178;8.186;2022-09-09T03:30:02;13.10;99.90
21176;DHT22;10746;50.178;8.186;2022-09-09T03:32:29;13.20;99.90
21176;DHT22;10746;50.178;8.186;2022-09-09T03:34:56;13.40;99.90
21176;DHT22;10746;50.178;8.186;2022-09-09T03:37:23;13.30;99.90
21176;DHT22;10746;50.178;8.186;2022-09-09T03:39:51;13.30;99.90
21176;DHT22;10746;50.178;8.186;2022-09-09T03:42:19;13.40;99.90
21176;DHT22;10746;50.178;8.186;2022-09-09T03:44:47;13.50;99.90
21176;DHT22;10746;50.178;8.186;2022-09-09T03:47:15;13.50;99.90
21176;DHT22;10746;50.178;8.186;2022-09-09T03:49:42;13.50;99.90
21176;DHT22;10746;50.178;8.186;2022-09-09T03:52:09;13.50;99.90
21176;DHT22;10746;50.178;8.186;2022-09-09T03:54:35;13.60;99.90
21176;DHT22;10746;50.178;8.186;2022-09-09T03:57:04;13.80;99.90
21176;DHT22;10746;50.178;8.186;2022-09-09T03:59:31;13.70;99.90
21176;DHT22;10746;50.178;8.186;2022-09-09T04:01:58;13.70;99.90
21176;DHT22;10746;50.178;8.186;2022-09-09T04:04:24;13.70;99.90
21176;DHT22;10746;50.178;8.186;2022-09-09T04:06:51;13.70;99.90
21176;DHT22;10746;50.178;8.186;2022-09-09T04:09:18;13.70;99.90
21176;DHT22;10746;50.178;8.186;2022-09-09T04:11:45;13.80;99.90
21176;DHT22;10746;50.178;8.186;2022-09-09T04:14:13;13.80;99.90
21176;DHT22;10746;50.178;8.186;2022-09-09T04:16:40;13.80;99.90
21176;DHT22;10746;50.178;8.186;2022-09-09T04:19:10;13.70;99.90
21176;DHT22;10746;50.178;8.186;2022-09-09T04:21:38;14.00;99.90
21176;DHT22;10746;50.178;8.186;2022-09-09T04:24:06;13.80;99.90
21176;DHT22;10746;50.178;8.186;2022-09-09T04:26:33;13.80;99.90
21176;DHT22;10746;50.178;8.186;2022-09-09T04:29:00;13.70;99.90
21176;DHT22;10746;50.178;8.186;2022-09-09T04:31:28;13.70;99.90
21176;DHT22;10746;50.178;8.186;2022-09-09T04:33:55;13.70;99.90
21176;DHT22;10746;50.178;8.186;2022-09-09T04:36:22;13.70;99.90
21176;DHT22;10746;50.178;8.186;2022-09-09T04:38:49;13.70;99.90
21176;DHT22;10746;50.178;8.186;2022-09-09T04:41:16;13.70;99.90
21176;DHT22;10746;50.178;8.186;2022-09-09T04:43:43;13.80;99.90
21176;DHT22;10746;50.178;8.186;2022-09-09T04:46:10;13.60;99.90
21176;DHT22;10746;50.178;8.186;2022-09-09T04:48:38;13.50;99.90
21176;DHT22;10746;50.178;8.186;2022-09-09T04:51:08;13.50;99.90
21176;DHT22;10746;50.178;8.186;2022-09-09T04:53:35;13.50;99.90
21176;DHT22;10746;50.178;8.186;2022-09-09T04:56:04;13.40;99.90
21176;DHT22;10746;50.178;8.186;2022-09-09T04:58:31;13.40;99.90
21176;DHT22;10746;50.178;8.186;2022-09-09T05:01:06;13.30;99.90
21176;DHT22;10746;50.178;8.186;2022-09-09T05:03:33;13.20;99.90
21176;DHT22;10746;50.178;8.186;2022-09-09T05:06:06;13.30;99.90
21176;DHT22;10746;50.178;8.186;2022-09-09T05:08:33;13.30;99.90
21176;DHT22;10746;50.178;8.186;2022-09-09T05:11:00;13.20;99.90
21176;DHT22;10746;50.178;8.186;2022-09-09T05:13:28;13.20;99.90
21176;DHT22;10746;50.178;8.186;2022-09-09T05:15:57;13.10;99.90
21176;DHT22;10746;50.178;8.186;2022-09-09T05:18:24;13.30;99.90
21176;DHT22;10746;50.178;8.186;2022-09-09T05:20:50;13.10;99.90
21176;DHT22;10746;50.178;8.186;2022-09-09T05:23:19;13.10;99.90
21176;DHT22;10746;50.178;8.186;2022-09-09T05:25:54;13.00;99.90
21176;DHT22;10746;50.178;8.186;2022-09-09T05:28:22;13.10;99.90
21176;DHT22;10746;50.178;8.186;2022-09-09T05:30:55;13.10;99.90
21176;DHT22;10746;50.178;8.186;2022-09-09T05:33:22;13.20;99.90
21176;DHT22;10746;50.178;8.186;2022-09-09T05:35:55;13.30;99.90
21176;DHT22;10746;50.178;8.186;2022-09-09T05:38:24;13.30;99.90
21176;DHT22;10746;50.178;8.186;2022-09-09T05:40:51;13.40;99.90
21176;DHT22;10746;50.178;8.186;2022-09-09T05:43:17;13.70;99.90
21176;DHT22;10746;50.178;8.186;2022-09-09T05:45:45;13.60;99.90
21176;DHT22;10746;50.178;8.186;2022-09-09T05:48:12;13.70;99.90
21176;DHT22;10746;50.178;8.186;2022-09-09T05:50:40;13.70;99.90
21176;DHT22;10746;50.178;8.186;2022-09-09T05:53:08;13.70;99.90
21176;DHT22;10746;50.178;8.186;2022-09-09T05:55:36;13.80;99.90
21176;DHT22;10746;50.178;8.186;2022-09-09T05:58:03;13.90;99.90
21176;DHT22;10746;50.178;8.186;2022-09-09T06:00:30;13.90;99.90
21176;DHT22;10746;50.178;8.186;2022-09-09T06:02:57;13.90;99.90
21176;DHT22;10746;50.178;8.186;2022-09-09T06:05:24;14.00;99.90
21176;DHT22;10746;50.178;8.186;2022-09-09T06:07:53;14.00;99.90
21176;DHT22;10746;50.178;8.186;2022-09-09T06:10:20;14.10;99.90
21176;DHT22;10746;50.178;8.186;2022-09-09T06:12:48;14.00;99.90
21176;DHT22;10746;50.178;8.186;2022-09-09T06:15:15;14.00;99.90
21176;DHT22;10746;50.178;8.186;2022-09-09T06:17:42;14.00;99.90
21176;DHT22;10746;50.178;8.186;2022-09-09T06:20:10;14.40;99.90
21176;DHT22;10746;50.178;8.186;2022-09-09T06:22:39;14.60;99.90
21176;DHT22;10746;50.178;8.186;2022-09-09T06:25:08;14.90;99.90
21176;DHT22;10746;50.178;8.186;2022-09-09T06:27:34;14.80;99.90
21176;DHT22;10746;50.178;8.186;2022-09-09T06:30:03;15.10;99.90
21176;DHT22;10746;50.178;8.186;2022-09-09T06:32:30;15.50;99.90
21176;DHT22;10746;50.178;8.186;2022-09-09T06:35:00;15.60;99.90
21176;DHT22;10746;50.178;8.186;2022-09-09T06:37:27;15.40;99.90
21176;DHT22;10746;50.178;8.186;2022-09-09T06:39:54;15.20;99.90
21176;DHT22;10746;50.178;8.186;2022-09-09T06:42:21;15.10;99.90
21176;DHT22;10746;50.178;8.186;2022-09-09T06:44:48;15.30;99.90
21176;DHT22;10746;50.178;8.186;2022-09-09T06:47:16;15.50;99.90
21176;DHT22;10746;50.178;8.186;2022-09-09T06:49:43;15.50;99.90
21176;DHT22;10746;50.178;8.186;2022-09-09T06:52:10;15.50;99.90
21176;DHT22;10746;50.178;8.186;2022-09-09T06:54:37;15.40;99.90
21176;DHT22;10746;50.178;8.186;2022-09-09T06:57:04;15.30;99.90
21176;DHT22;10746;50.178;8.186;2022-09-09T06:59:32;15.30;99.90
21176;DHT22;10746;50.178;8.186;2022-09-09T07:01:59;15.30;99.90
21176;DHT22;10746;50.178;8.186;2022-09-09T07:04:27;15.50;99.90
21176;DHT22;10746;50.178;8.186;2022-09-09T07:06:54;15.90;99.90
21176;DHT22;10746;50.178;8.186;2022-09-09T07:09:21;16.10;99.90
21176;DHT22;10746;50.178;8.186;2022-09-09T07:11:50;15.90;99.90
21176;DHT22;10746;50.178;8.186;2022-09-09T07:14:18;15.70;99.90
21176;DHT22;10746;50.178;8.186;2022-09-09T07:16:45;15.40;99.90
21176;DHT22;10746;50.178;8.186;2022-09-09T07:19:13;15.10;99.90
21176;DHT22;10746;50.178;8.186;2022-09-09T07:21:41;15.00;99.90
21176;DHT22;10746;50.178;8.186;2022-09-09T07:24:08;15.00;99.90
21176;DHT22;10746;50.178;8.186;2022-09-09T07:26:37;15.00;99.90
21176;DHT22;10746;50.178;8.186;2022-09-09T07:29:04;15.00;99.90
21176;DHT22;10746;50.178;8.186;2022-09-09T07:31:33;15.10;99.90
21176;DHT22;10746;50.178;8.186;2022-09-09T07:34:01;15.00;99.90
21176;DHT22;10746;50.178;8.186;2022-09-09T07:36:29;15.30;99.90
21176;DHT22;10746;50.178;8.186;2022-09-09T07:38:59;15.50;99.90
21176;DHT22;10746;50.178;8.186;2022-09-09T07:41:27;15.90;99.90
21176;DHT22;10746;50.178;8.186;2022-09-09T07:43:56;16.40;99.90
21176;DHT22;10746;50.178;8.186;2022-09-09T07:46:25;16.50;99.90
21176;DHT22;10746;50.178;8.186;2022-09-09T07:48:54;16.70;99.90
21176;DHT22;10746;50.178;8.186;2022-09-09T07:51:24;16.70;99.90
21176;DHT22;10746;50.178;8.186;2022-09-09T07:53:53;16.60;99.90
21176;DHT22;10746;50.178;8.186;2022-09-09T07:56:21;16.40;99.90
21176;DHT22;10746;50.178;8.186;2022-09-09T07:58:49;16.40;99.90
21176;DHT22;10746;50.178;8.186;2022-09-09T08:01:18;16.60;99.90
21176;DHT22;10746;50.178;8.186;2022-09-09T08:03:46;16.90;99.90
21176;DHT22;10746;50.178;8.186;2022-09-09T08:06:13;16.90;99.90
21176;DHT22;10746;50.178;8.186;2022-09-09T08:08:40;16.80;99.90
21176;DHT22;10746;50.178;8.186;2022-09-09T08:11:10;16.50;99.90
21176;DHT22;10746;50.178;8.186;2022-09-09T08:13:39;16.40;99.90
21176;DHT22;10746;50.178;8.186;2022-09-09T08:16:08;16.20;99.90
21176;DHT22;10746;50.178;8.186;2022-09-09T08:18:35;16.30;99.90
21176;DHT22;10746;50.178;8.186;2022-09-09T08:21:07;16.20;99.90
21176;DHT22;10746;50.178;8.186;2022-09-09T08:23:37;16.20;99.90
21176;DHT22;10746;50.178;8.186;2022-09-09T08:26:05;16.10;99.90
21176;DHT22;10746;50.178;8.186;2022-09-09T08:28:32;16.10;99.90
21176;DHT22;10746;50.178;8.186;2022-09-09T08:31:13;16.00;99.90
21176;DHT22;10746;50.178;8.186;2022-09-09T08:33:41;16.00;99.90
21176;DHT22;10746;50.178;8.186;2022-09-09T08:36:10;16.00;99.90
21176;DHT22;10746;50.178;8.186;2022-09-09T08:38:38;16.00;99.90
21176;DHT22;10746;50.178;8.186;2022-09-09T08:41:30;15.90;99.90
21176;DHT22;10746;50.178;8.186;2022-09-09T08:44:06;15.90;99.90
21176;DHT22;10746;50.178;8.186;2022-09-09T08:46:40;16.00;99.90
21176;DHT22;10746;50.178;8.186;2022-09-09T08:49:21;16.00;99.90
21176;DHT22;10746;50.178;8.186;2022-09-09T08:51:51;16.10;99.90
21176;DHT22;10746;50.178;8.186;2022-09-09T08:54:20;16.30;99.90
21176;DHT22;10746;50.178;8.186;2022-09-09T08:56:48;16.40;99.90
21176;DHT22;10746;50.178;8.186;2022-09-09T08:59:17;16.30;99.90
21176;DHT22;10746;50.178;8.186;2022-09-09T09:01:57;16.40;99.90
21176;DHT22;10746;50.178;8.186;2022-09-09T09:04:37;16.40;99.90
21176;DHT22;10746;50.178;8.186;2022-09-09T09:07:13;16.50;99.90
21176;DHT22;10746;50.178;8.186;2022-09-09T09:09:46;16.50;99.90
21176;DHT22;10746;50.178;8.186;2022-09-09T09:12:20;16.60;99.90
21176;DHT22;10746;50.178;8.186;2022-09-09T09:14:48;17.10;99.90
21176;DHT22;10746;50.178;8.186;2022-09-09T09:17:18;17.50;99.90
21176;DHT22;10746;50.178;8.186;2022-09-09T09:19:47;18.00;99.90
21176;DHT22;10746;50.178;8.186;2022-09-09T09:22:18;18.60;99.90
21176;DHT22;10746;50.178;8.186;2022-09-09T09:24:52;18.90;99.90
21176;DHT22;10746;50.178;8.186;2022-09-09T09:27:29;18.60;99.90
21176;DHT22;10746;50.178;8.186;2022-09-09T09:29:58;18.20;99.90
21176;DHT22;10746;50.178;8.186;2022-09-09T09:32:30;17.60;99.90
21176;DHT22;10746;50.178;8.186;2022-09-09T09:34:58;17.50;99.90
21176;DHT22;10746;50.178;8.186;2022-09-09T09:37:29;17.40;99.90
21176;DHT22;10746;50.178;8.186;2022-09-09T09:40:06;17.30;99.90
21176;DHT22;10746;50.178;8.186;2022-09-09T09:42:34;17.40;99.90
21176;DHT22;10746;50.178;8.186;2022-09-09T09:45:08;17.90;99.90
21176;DHT22;10746;50.178;8.186;2022-09-09T09:47:36;18.30;99.90
21176;DHT22;10746;50.178;8.186;2022-09-09T09:50:16;18.80;99.90
21176;DHT22;10746;50.178;8.186;2022-09-09T09:52:53;18.70;99.90
21176;DHT22;10746;50.178;8.186;2022-09-09T09:55:21;18.70;99.90
21176;DHT22;10746;50.178;8.186;2022-09-09T09:57:49;19.10;99.90
21176;DHT22;10746;50.178;8.186;2022-09-09T10:00:19;19.60;99.90
21176;DHT22;10746;50.178;8.186;2022-09-09T10:02:48;19.70;99.90
21176;DHT22;10746;50.178;8.186;2022-09-09T10:05:19;19.90;99.90
21176;DHT22;10746;50.178;8.186;2022-09-09T10:07:47;19.70;99.90
21176;DHT22;10746;50.178;8.186;2022-09-09T10:10:34;19.90;99.90
21176;DHT22;10746;50.178;8.186;2022-09-09T10:13:09;19.60;99.90
21176;DHT22;10746;50.178;8.186;2022-09-09T10:15:44;18.80;99.90
21176;DHT22;10746;50.178;8.186;2022-09-09T10:18:38;18.60;99.90
21176;DHT22;10746;50.178;8.186;2022-09-09T10:21:18;18.50;99.90
21176;DHT22;10746;50.178;8.186;2022-09-09T10:24:00;18.60;99.90
21176;DHT22;10746;50.178;8.186;2022-09-09T10:26:40;18.50;99.90
21176;DHT22;10746;50.178;8.186;2022-09-09T10:29:19;19.00;99.90
21176;DHT22;10746;50.178;8.186;2022-09-09T10:31:56;19.80;99.90
21176;DHT22;10746;50.178;8.186;2022-09-09T10:34:52;20.30;99.90
21176;DHT22;10746;50.178;8.186;2022-09-09T10:37:35;20.40;99.90
21176;DHT22;10746;50.178;8.186;2022-09-09T10:40:15;19.90;99.90
21176;DHT22;10746;50.178;8.186;2022-09-09T10:43:22;19.40;99.90
21176;DHT22;10746;50.178;8.186;2022-09-09T21:55:28;12.60;99.90
21176;DHT22;10746;50.178;8.186;2022-09-09T22:05:38;12.70;99.90
